Podgorica current weather conditions

sailwx.info

Last reported at 2016-Dec-09 11:31 UTC.
Time now 2016-Dec-09 11:39 UTC

Location: N 42°22' E 019°15'.
View on Google Maps.

See reports from other nearby stations

  
Tides and Currents Weather Stations Pressure Air Temp Water Temp Dewpoint Dewpoint Depression Visibility Wind Speed Wind Dir Waves Ship Positions
date/time (UTC)wind fromknots sea level pressurealtimeterstation pressurevisibilityair tempwater tempwave heightnotes
2016-Dec-09 10:30 5.410.0
2016-Dec-09 10:00 5.410.0
2016-Dec-09 09:30 5.4 8.0
2016-Dec-09 09:00 5.4 7.0
2016-Dec-09 08:30 5.4 5.0
2016-Dec-09 08:00 350 2 5.4 3.0
2016-Dec-09 07:30 350 2 5.4 1.0 Shallow fog.
2016-Dec-09 07:00 350 4 5.4-0.0 Shallow fog.
2016-Dec-09 06:30 350 5 5.4-1.0 Shallow fog.
2016-Dec-09 06:00 030 2 5.4-2.0
2016-Dec-09 05:30 350 4 5.4-2.0
2016-Dec-09 05:00 280 2 5.4-2.0
2016-Dec-09 04:30 050 2 5.4-2.0
2016-Dec-09 04:00 340 2 5.4-2.0
2016-Dec-09 03:30 5.4-1.0
2016-Dec-09 03:00 5.4-2.0
2016-Dec-09 02:30 5.4-2.0
2016-Dec-09 02:00 5.4-1.0
2016-Dec-09 01:30 330 2 5.4-1.0
2016-Dec-09 01:00 5.4-1.0
2016-Dec-09 00:30 280 4 5.4-0.0
2016-Dec-09 00:00 350 2 5.4-0.0
2016-Dec-08 23:30 5.4-0.0
2016-Dec-08 23:00 5.4-1.0
2016-Dec-08 22:30 5.4-1.0
2016-Dec-08 22:00 5.4-0.0
2016-Dec-08 21:30 3.8 1.0
2016-Dec-08 21:00 360 6 3.2 2.0
2016-Dec-08 20:30 340 4 3.2 1.0
2016-Dec-08 20:00 340 5 3.2 2.0
2016-Dec-08 19:30 360 5 4.3 2.0
2016-Dec-08 19:00 010 1 5.4 1.0
2016-Dec-08 18:30 010 2 5.4 1.0
2016-Dec-08 18:00 350 2 5.4 2.0
2016-Dec-08 17:30 100 1 5.4 4.0
2016-Dec-08 17:00 110 2 5.4 3.0
2016-Dec-08 16:30 140 4 5.4 4.0
2016-Dec-08 16:00 150 4 5.4 5.0
2016-Dec-08 15:30 160 2 5.4 6.0
2016-Dec-08 15:00 5.4 9.0
2016-Dec-08 14:30 220 2 5.410.0
2016-Dec-08 14:00 5.411.0
2016-Dec-08 13:30 5.411.0
2016-Dec-08 13:00 5.412.0
2016-Dec-08 12:30 5.412.0
2016-Dec-08 12:00 5.412.0
2016-Dec-08 11:30 5.411.0
2016-Dec-08 11:00 290 2 5.410.0
2016-Dec-08 10:30 5.4 9.0
2016-Dec-08 10:00 5.4 9.0
2016-Dec-08 09:30 5.4 8.0
2016-Dec-08 09:00 5.4 7.0
2016-Dec-08 08:30 5.4 6.0
2016-Dec-08 08:00 5.4 4.0
2016-Dec-08 07:30 5.4 2.0
2016-Dec-08 07:00 5.4-0.0
2016-Dec-08 06:30 030 1 5.4-2.0
2016-Dec-08 06:00 330 2 5.4-2.0
2016-Dec-08 05:30 5.4-0.0
2016-Dec-08 05:00 020 2 5.4-0.0
2016-Dec-08 04:30 330 2 5.4-1.0
2016-Dec-08 04:00 5.4-0.0
2016-Dec-08 03:30 5.4-0.0
2016-Dec-08 03:00 5.4-0.0
2016-Dec-08 02:30 5.4 1.0
2016-Dec-08 02:00 5.4 1.0
2016-Dec-08 01:30 360 4 5.4 2.0
2016-Dec-08 01:00 5.4 1.0
2016-Dec-08 00:30 5.4 2.0
2016-Dec-08 00:00 330 5 5.4 3.0
2016-Dec-07 23:30 360 6 5.4 5.0
2016-Dec-07 23:00 010 6 5.4 5.0
2016-Dec-07 22:30 340 6 5.4 6.0
2016-Dec-07 22:00 360 8 5.4 7.0
2016-Dec-07 21:30 360 7 5.4 6.0
2016-Dec-07 21:00 350 7 5.4 6.0
2016-Dec-07 20:30 010 8 5.4 6.0
2016-Dec-07 20:00 360 8 5.4 7.0
2016-Dec-07 19:30 350 9 5.4 7.0
2016-Dec-07 19:00 360 7 5.4 8.0
2016-Dec-07 18:30 010 13 5.4 8.0
2016-Dec-07 18:00 010 11 5.4 7.0
2016-Dec-07 17:30 360 13 5.4 8.0
2016-Dec-07 17:00 360 11 5.4 8.0
2016-Dec-07 16:30 360 9 5.4 8.0
2016-Dec-07 16:00 020 12 5.4 9.0
2016-Dec-07 15:30 020 13 5.4 9.0
2016-Dec-07 15:00 020 11 5.410.0
2016-Dec-07 14:30 360 11 5.411.0
2016-Dec-07 14:00 010 8 5.412.0
2016-Dec-07 13:30 020 9 5.412.0
2016-Dec-07 13:00 020 13 5.413.0
2016-Dec-07 12:30 5.413.0
2016-Dec-07 12:00 010 18 5.414.0
2016-Dec-07 11:30 010 17 5.414.0